Aeroporto :
LOGIN :

Iscrizione | Disclaimer

   EN    FR    IT 

 










Sommario :    VFR   VFR Marginale   IFR   IFR Intensivo   IFR Molto Intensivo
Visibilità : 
Base nubi : 
>= 8 km
>= 3000ft
5 / 8 km
1000 / 3000 ft
1500m / 5 km
500 / 1000 ft
800 / 1500m
200 / 500 ft
< 800m
< 200 ft
Simboli :   Temporali  Nebbia  Neve Forte  Precipitazioni Forti  Vento > 20 kt
SIGMETs :   Varie  Temporali  Ghiacco  Turbolenza  Onda orograficha  Ceneri Vulcaniche






- Altitudine del aeroporto : 659 ft
- Codice IATA : LGG


EBLG - Liège

ULTIMO METAR :
  • 131250Z 21011KT 9999 SCT014 BKN041 07/04 Q1001 NOSIG

METARs OBSOLETI :
  • 131220Z 21010KT 9999 BKN010 BKN014 07/05 Q1002 NOSIG
  • 131150Z 23011KT 9999 BKN008 BKN013 07/05 Q1002 NOSIG
  • 131120Z 22011KT 9999 SCT008 BKN013 06/04 Q1002 TEMPO BKN008
  • 131050Z 22011KT 9999 SCT008 BKN013 06/04 Q1002 TEMPO 4500 SHRA BKN008
  • 131020Z 22013KT 9999 -SHRA SCT008 BKN014 06/04 Q1002 TEMPO 4500 SHRA BKN008
  • 130950Z 22012KT 9999 FEW008 BKN022 BKN028 05/04 Q1002 TEMPO 4500 SHRA

TAF TAF EBLG
Valido dal 13 a 12 ore il 14 a 18 ore UTC


131102Z 1312/1418 20008KT 9999 FEW015 BKN020
PROB30
TEMPO 1316/1324 4000 RA SHRA BKN012 SCT015TCU
BECMG 1402/1404 15010KT
PROB30
TEMPO 1408/1411 4000 RA SHRA FEW008 BKN012



MetMap, La meteo Aeronautica in un colpo d'occhio ! - Copyright ORBIFLY Dicembre 2007 - Disclaimer

ORBIFLY MET'MAP TEAM :

Programmazione e sviluppo : Alexandra Zaïnal
Concezione e sviluppo : Baudouin d'Aumeries
Co-Programmazione e sviluppo : Marc-Olivier Méhu
Supporto tecnico e logistico : Manuel Goepfert
Aiuto per la traduzione : Arnaldo La Scala

Contatto : metmap@orbifly.com




FONTI E CREDITI :

   NOAA